Time;durP1;ratioP1;P1;durP2;ratioP2;P2;SDS_P1;SDS_P2;PMS_P1;PMS_P2;Temp;Humidity;BMP_temperature;BMP_pressure;BME280_temperature;BME280_humidity;BME280_pressure;Samples;Min_cycle;Max_cycle;Signal;HPM_P1;HPM_P2
2023/11/17 00:01:13;;;;;;;3.73;3.20;;;8.20;91.50;;;;;;5040636;28;20561;-51
2023/11/17 00:03:39;;;;;;;4.13;3.33;;;8.20;91.50;;;;;;5049116;28;20660;-52
2023/11/17 00:06:06;;;;;;;3.67;3.37;;;8.30;91.50;;;;;;5042105;28;20248;-56
2023/11/17 00:08:32;;;;;;;3.30;3.10;;;8.30;91.60;;;;;;5046007;28;20291;-54
2023/11/17 00:10:59;;;;;;;3.40;2.77;;;8.30;91.30;;;;;;5038572;28;20304;-56
2023/11/17 00:13:25;;;;;;;2.60;2.40;;;8.30;91.40;;;;;;5050042;28;20213;-57
2023/11/17 00:15:52;;;;;;;2.53;2.33;;;8.30;91.30;;;;;;5053884;28;20229;-55
2023/11/17 00:18:18;;;;;;;3.00;2.70;;;8.30;91.30;;;;;;5047384;28;20213;-55
2023/11/17 00:20:45;;;;;;;2.00;1.80;;;8.30;91.30;;;;;;5046812;28;20205;-54
2023/11/17 00:23:11;;;;;;;1.97;1.87;;;8.30;91.00;;;;;;5044004;28;20327;-54
2023/11/17 00:25:39;;;;;;;1.90;1.80;;;8.30;90.70;;;;;;5043827;28;20700;-51
2023/11/17 00:28:05;;;;;;;2.03;1.70;;;8.30;91.00;;;;;;5041602;28;20205;-54
2023/11/17 00:30:32;;;;;;;1.83;1.70;;;8.30;90.30;;;;;;5047271;28;20211;-53
2023/11/17 00:32:58;;;;;;;2.27;1.70;;;8.20;89.90;;;;;;5046370;28;20237;-53
2023/11/17 00:35:25;;;;;;;1.90;1.80;;;8.30;90.00;;;;;;5051448;28;20252;-55
2023/11/17 00:37:52;;;;;;;1.80;1.70;;;8.10;88.80;;;;;;5051799;28;20218;-53
2023/11/17 00:40:18;;;;;;;2.00;1.90;;;8.20;89.80;;;;;;5043387;28;20288;-55
2023/11/17 00:42:45;;;;;;;2.20;2.10;;;8.20;89.70;;;;;;5042498;28;20248;-56
2023/11/17 00:45:11;;;;;;;2.10;2.00;;;8.20;88.70;;;;;;5047916;28;20243;-53
2023/11/17 00:47:37;;;;;;;2.07;1.97;;;8.20;89.00;;;;;;5043266;28;20251;-52
2023/11/17 00:50:10;;;;;;;2.60;2.40;;;8.20;89.30;;;;;;5041559;28;20221;-52
2023/11/17 00:52:37;;;;;;;2.10;2.00;;;8.20;89.50;;;;;;5045636;28;20236;-53
2023/11/17 00:55:06;;;;;;;2.43;2.23;;;8.20;88.60;;;;;;5045081;28;20233;-51
2023/11/17 00:57:33;;;;;;;2.47;2.30;;;8.10;88.90;;;;;;5050018;28;20224;-52
2023/11/17 00:59:59;;;;;;;3.13;2.93;;;8.00;88.70;;;;;;5039755;28;20232;-52
2023/11/17 01:02:26;;;;;;;2.80;2.60;;;7.90;88.00;;;;;;5041184;28;20318;-55
2023/11/17 01:04:53;;;;;;;3.77;3.00;;;7.80;87.40;;;;;;5048941;28;20669;-51
2023/11/17 01:07:20;;;;;;;3.13;2.93;;;7.80;86.10;;;;;;5051999;28;20200;-51
2023/11/17 01:09:47;;;;;;;2.80;2.60;;;7.80;85.40;;;;;;5045306;28;20250;-52
2023/11/17 01:12:14;;;;;;;2.70;2.50;;;7.70;85.00;;;;;;5048891;28;20212;-55
2023/11/17 01:14:40;;;;;;;3.20;3.00;;;7.60;84.50;;;;;;5050228;28;20224;-52
2023/11/17 01:17:07;;;;;;;2.70;2.50;;;7.60;83.70;;;;;;5045331;28;20291;-54
2023/11/17 01:19:33;;;;;;;2.90;2.70;;;7.50;84.40;;;;;;5040825;28;20208;-53
2023/11/17 01:22:00;;;;;;;2.90;2.70;;;7.50;84.80;;;;;;5048228;28;20284;-51
2023/11/17 01:24:28;;;;;;;2.50;2.40;;;7.50;83.00;;;;;;5048643;28;20598;-53
2023/11/17 01:26:55;;;;;;;1.93;1.83;;;7.40;82.10;;;;;;5046735;28;20243;-54
2023/11/17 01:29:21;;;;;;;2.23;2.13;;;7.20;79.30;;;;;;5049627;28;20702;-52
2023/11/17 01:31:48;;;;;;;2.23;2.13;;;7.20;80.80;;;;;;5041610;28;20725;-54
2023/11/17 01:34:16;;;;;;;2.17;2.07;;;7.20;81.50;;;;;;5049075;28;20199;-51
2023/11/17 01:36:43;;;;;;;2.10;2.00;;;7.10;80.30;;;;;;5039732;28;20212;-55
2023/11/17 01:39:10;;;;;;;1.97;1.90;;;7.10;79.10;;;;;;5044518;28;20205;-55
2023/11/17 01:41:36;;;;;;;1.80;1.70;;;7.00;77.50;;;;;;5050382;28;20305;-53
2023/11/17 01:44:03;;;;;;;1.80;1.70;;;7.00;77.50;;;;;;5037235;28;20224;-51
2023/11/17 01:46:29;;;;;;;1.63;1.63;;;7.00;77.40;;;;;;5047925;28;20233;-51
2023/11/17 01:48:56;;;;;;;2.10;2.00;;;7.00;76.90;;;;;;5043779;28;20238;-54
2023/11/17 01:51:23;;;;;;;1.70;1.60;;;7.00;76.40;;;;;;5042776;28;20214;-54
2023/11/17 01:53:49;;;;;;;1.30;1.30;;;6.80;74.30;;;;;;5041578;28;20292;-52
2023/11/17 01:56:16;;;;;;;1.83;1.73;;;6.50;74.80;;;;;;5043765;28;20258;-51
2023/11/17 01:58:44;;;;;;;1.60;1.60;;;6.40;74.70;;;;;;5047990;28;20203;-52
2023/11/17 02:01:10;;;;;;;1.77;1.67;;;6.30;74.00;;;;;;5047683;28;20214;-52
2023/11/17 02:03:39;;;;;;;1.77;1.67;;;6.30;74.10;;;;;;5048356;28;20230;-53
2023/11/17 02:06:05;;;;;;;1.67;1.57;;;6.20;74.10;;;;;;5050918;28;20227;-52
2023/11/17 02:08:32;;;;;;;1.70;1.60;;;6.20;73.70;;;;;;5043787;28;20199;-54
2023/11/17 02:10:59;;;;;;;1.63;1.53;;;6.20;75.50;;;;;;5044302;28;24289;-51
2023/11/17 02:13:26;;;;;;;1.63;1.60;;;6.20;75.00;;;;;;5038477;28;20214;-53
2023/11/17 02:15:52;;;;;;;2.00;1.90;;;6.30;74.50;;;;;;5043089;28;20286;-52
2023/11/17 02:18:22;;;;;;;1.90;1.80;;;6.20;74.90;;;;;;5048484;28;20227;-54
2023/11/17 02:20:52;;;;;;;2.07;1.97;;;6.10;74.10;;;;;;5050067;28;20574;-54
2023/11/17 02:23:19;;;;;;;2.20;2.10;;;6.20;74.00;;;;;;5044759;28;20226;-51
2023/11/17 02:25:46;;;;;;;2.00;1.90;;;6.20;73.70;;;;;;5045696;28;20226;-54
2023/11/17 02:28:12;;;;;;;1.90;1.80;;;6.10;73.00;;;;;;5049282;28;20224;-52
2023/11/17 02:30:40;;;;;;;1.90;1.80;;;6.10;73.60;;;;;;5042770;28;20204;-55
2023/11/17 02:33:08;;;;;;;1.80;1.77;;;6.00;72.10;;;;;;5045048;28;20213;-51
2023/11/17 02:35:34;;;;;;;1.90;1.80;;;5.80;72.90;;;;;;5044538;28;20228;-53
2023/11/17 02:38:01;;;;;;;1.73;1.73;;;5.80;73.30;;;;;;5040807;28;20211;-51
2023/11/17 02:40:28;;;;;;;1.40;1.40;;;5.80;73.30;;;;;;5047575;28;20643;-53
2023/11/17 02:42:57;;;;;;;1.60;1.50;;;5.70;72.30;;;;;;5039496;28;20232;-56
2023/11/17 02:45:25;;;;;;;1.60;1.60;;;5.60;73.00;;;;;;5047054;28;20222;-52
2023/11/17 02:47:51;;;;;;;2.00;1.80;;;5.50;73.00;;;;;;5047369;28;20565;-52
2023/11/17 02:50:21;;;;;;;1.80;1.80;;;5.50;73.00;;;;;;5046851;28;20824;-54
2023/11/17 02:53:00;;;;;;;1.60;1.50;;;5.60;72.20;;;;;;5041876;28;20301;-53
2023/11/17 02:55:27;;;;;;;1.90;1.80;;;5.50;72.40;;;;;;5046824;28;20229;-56
2023/11/17 02:57:54;;;;;;;1.73;1.63;;;5.50;73.40;;;;;;5044783;28;20303;-53
2023/11/17 03:00:23;;;;;;;1.70;1.70;;;5.50;73.10;;;;;;5046399;28;20242;-51
2023/11/17 03:02:50;;;;;;;1.77;1.70;;;5.50;73.60;;;;;;5047884;28;20690;-52
2023/11/17 03:05:17;;;;;;;2.80;1.70;;;5.40;72.90;;;;;;5051570;28;20225;-54
2023/11/17 03:07:43;;;;;;;1.70;1.70;;;5.50;73.00;;;;;;5051406;28;20290;-52
2023/11/17 03:10:10;;;;;;;1.70;1.70;;;5.60;73.10;;;;;;5050534;28;20201;-56
2023/11/17 03:12:36;;;;;;;1.87;1.77;;;5.40;73.20;;;;;;5036143;28;20220;-55
2023/11/17 03:15:04;;;;;;;1.83;1.73;;;5.40;74.00;;;;;;5048108;28;20222;-52
2023/11/17 03:17:30;;;;;;;1.80;1.70;;;5.40;73.60;;;;;;5051677;28;20210;-55
2023/11/17 03:19:57;;;;;;;1.70;1.70;;;5.20;73.60;;;;;;5047820;28;20220;-56
2023/11/17 03:22:23;;;;;;;1.60;1.60;;;5.20;73.50;;;;;;5048978;28;20289;-53
2023/11/17 03:24:49;;;;;;;1.80;1.70;;;5.20;73.90;;;;;;5048741;28;20233;-51
2023/11/17 03:27:16;;;;;;;1.60;1.60;;;5.20;74.10;;;;;;5048076;28;20233;-52
2023/11/17 03:29:46;;;;;;;1.60;1.60;;;5.20;73.30;;;;;;5049022;28;20205;-54
2023/11/17 03:32:13;;;;;;;1.73;1.70;;;5.20;73.60;;;;;;5046725;28;20234;-52
2023/11/17 03:34:40;;;;;;;1.70;1.70;;;5.10;74.00;;;;;;5051347;28;20221;-56
2023/11/17 03:37:07;;;;;;;2.00;1.90;;;5.10;74.30;;;;;;5049727;28;20213;-51
2023/11/17 03:39:40;;;;;;;2.00;1.90;;;5.10;74.60;;;;;;5052041;28;20293;-53
2023/11/17 03:42:09;;;;;;;1.70;1.60;;;5.20;75.40;;;;;;5042267;28;20313;-53
2023/11/17 03:44:36;;;;;;;2.03;1.90;;;5.20;74.50;;;;;;5040578;28;20232;-51
2023/11/17 03:47:05;;;;;;;1.90;1.80;;;5.10;74.30;;;;;;5048536;28;20212;-54
2023/11/17 03:49:32;;;;;;;2.13;2.03;;;5.10;74.70;;;;;;5049776;28;20209;-51
2023/11/17 03:51:58;;;;;;;2.00;1.90;;;5.00;75.30;;;;;;5048145;28;20290;-49
2023/11/17 03:54:25;;;;;;;2.07;1.97;;;5.00;75.40;;;;;;5050431;28;20200;-55
2023/11/17 03:56:52;;;;;;;1.70;1.70;;;5.00;75.40;;;;;;5045403;28;20636;-56
2023/11/17 03:59:18;;;;;;;1.87;1.77;;;5.00;73.80;;;;;;5052487;28;20664;-56
2023/11/17 04:01:45;;;;;;;1.97;1.87;;;5.10;73.80;;;;;;5037675;28;20668;-50
2023/11/17 04:04:11;;;;;;;2.00;1.90;;;5.00;74.20;;;;;;5044579;28;20424;-54
2023/11/17 04:06:38;;;;;;;1.87;1.77;;;5.00;74.90;;;;;;5052815;28;20574;-54
2023/11/17 04:09:06;;;;;;;2.00;1.90;;;5.00;74.90;;;;;;5050533;28;20229;-55
2023/11/17 04:11:33;;;;;;;1.60;1.60;;;5.00;74.90;;;;;;5045934;28;20295;-55
2023/11/17 04:13:59;;;;;;;1.70;1.60;;;4.90;74.60;;;;;;5048302;28;20296;-51
2023/11/17 04:16:26;;;;;;;1.90;1.80;;;5.10;74.40;;;;;;5047646;28;20230;-56
2023/11/17 04:18:54;;;;;;;1.70;1.70;;;5.00;74.00;;;;;;5042772;28;20212;-52
2023/11/17 04:21:20;;;;;;;1.73;1.73;;;4.90;73.70;;;;;;5051054;28;20553;-52
2023/11/17 04:23:47;;;;;;;1.70;1.70;;;4.80;73.60;;;;;;5052947;28;20289;-53
2023/11/17 04:26:13;;;;;;;1.50;1.50;;;4.70;74.70;;;;;;5052758;28;20317;-55
2023/11/17 04:28:40;;;;;;;1.80;1.70;;;4.80;74.60;;;;;;5050731;28;20204;-51
2023/11/17 04:31:07;;;;;;;1.70;1.60;;;4.90;74.80;;;;;;5051480;28;20237;-56
2023/11/17 04:33:33;;;;;;;1.60;1.60;;;4.90;74.20;;;;;;5050649;28;20214;-52
2023/11/17 04:36:00;;;;;;;1.80;1.70;;;4.90;74.00;;;;;;5047255;28;20767;-52
2023/11/17 04:38:26;;;;;;;1.87;1.77;;;4.80;73.50;;;;;;5044857;28;20256;-50
2023/11/17 04:40:54;;;;;;;1.97;1.87;;;4.80;74.20;;;;;;5042915;28;20233;-51
2023/11/17 04:43:20;;;;;;;2.00;1.93;;;4.90;75.60;;;;;;5046238;28;20684;-51
2023/11/17 04:45:48;;;;;;;1.83;1.80;;;5.00;74.60;;;;;;5049023;28;20222;-53
2023/11/17 04:48:16;;;;;;;1.80;1.70;;;4.90;74.40;;;;;;5051933;28;20202;-50
2023/11/17 04:50:42;;;;;;;1.60;1.60;;;4.90;75.20;;;;;;5045835;28;20212;-51
2023/11/17 04:53:09;;;;;;;1.77;1.70;;;4.90;74.80;;;;;;5041883;28;20205;-52
2023/11/17 04:55:35;;;;;;;1.87;1.80;;;4.80;74.70;;;;;;5044126;28;20222;-51
2023/11/17 04:58:03;;;;;;;2.13;2.03;;;4.80;75.10;;;;;;5051512;28;20220;-53
2023/11/17 05:00:31;;;;;;;1.90;1.80;;;4.80;74.70;;;;;;5045787;28;20293;-51
2023/11/17 05:02:59;;;;;;;1.60;1.60;;;4.80;74.60;;;;;;5046714;28;20195;-53
2023/11/17 05:05:26;;;;;;;1.70;1.70;;;4.80;74.10;;;;;;5050556;28;20229;-53
2023/11/17 05:07:52;;;;;;;1.73;1.63;;;4.70;74.00;;;;;;5050962;28;20209;-51
2023/11/17 05:10:19;;;;;;;1.87;1.70;;;4.70;74.60;;;;;;5045438;28;20217;-53
2023/11/17 05:12:46;;;;;;;1.90;1.80;;;4.70;75.90;;;;;;5050581;28;20235;-51
2023/11/17 05:15:13;;;;;;;2.00;1.90;;;4.70;75.10;;;;;;5051620;28;20280;-54
2023/11/17 05:17:43;;;;;;;1.73;1.63;;;4.70;74.30;;;;;;5048275;28;20210;-54
2023/11/17 05:20:10;;;;;;;3.27;1.90;;;4.60;74.40;;;;;;5049132;28;20205;-55
2023/11/17 05:22:36;;;;;;;1.90;1.80;;;4.70;75.00;;;;;;5051569;28;20220;-53
2023/11/17 05:25:06;;;;;;;1.77;1.73;;;4.80;75.30;;;;;;5051709;28;20324;-54
2023/11/17 05:27:32;;;;;;;3.50;1.77;;;4.70;75.00;;;;;;5041760;28;20205;-53
2023/11/17 05:29:59;;;;;;;2.10;2.00;;;4.80;75.30;;;;;;5048245;28;20242;-53
2023/11/17 05:32:26;;;;;;;1.83;1.80;;;4.70;76.10;;;;;;5049080;28;20596;-50
2023/11/17 05:34:52;;;;;;;2.00;1.90;;;4.80;75.40;;;;;;5050512;28;20225;-51
2023/11/17 05:37:19;;;;;;;2.03;1.93;;;4.70;75.50;;;;;;5050718;28;20577;-52
2023/11/17 05:39:45;;;;;;;2.20;2.10;;;4.80;75.90;;;;;;5047138;28;20292;-54
2023/11/17 05:42:12;;;;;;;2.10;2.00;;;4.80;76.20;;;;;;5050271;28;20220;-51
2023/11/17 05:44:38;;;;;;;2.10;2.00;;;4.80;75.10;;;;;;5040556;28;20240;-52
2023/11/17 05:47:06;;;;;;;2.20;2.10;;;4.80;75.50;;;;;;5044314;28;20296;-60
2023/11/17 05:49:33;;;;;;;2.20;2.10;;;4.80;76.00;;;;;;5050541;28;20209;-52
2023/11/17 05:51:59;;;;;;;2.13;1.90;;;4.90;75.40;;;;;;5049570;28;20677;-55
2023/11/17 05:54:26;;;;;;;2.40;2.30;;;4.90;74.80;;;;;;5051228;28;20652;-52
2023/11/17 05:56:53;;;;;;;2.27;2.17;;;4.80;75.80;;;;;;5051190;28;20256;-53
2023/11/17 05:59:20;;;;;;;2.70;2.50;;;4.90;75.80;;;;;;5049334;28;20267;-53
2023/11/17 06:01:47;;;;;;;3.57;2.37;;;4.70;76.00;;;;;;5044890;28;20208;-53
2023/11/17 06:04:13;;;;;;;2.90;2.50;;;4.70;76.00;;;;;;5050589;28;20225;-55
2023/11/17 06:06:40;;;;;;;2.90;2.40;;;4.80;76.50;;;;;;5046995;28;20208;-56
2023/11/17 06:09:07;;;;;;;4.07;2.30;;;4.80;77.30;;;;;;5051632;28;20206;-55
2023/11/17 06:11:36;;;;;;;2.60;2.40;;;4.80;76.60;;;;;;5040560;28;20225;-55
2023/11/17 06:14:03;;;;;;;2.93;2.73;;;4.90;76.10;;;;;;5043049;28;20237;-53
2023/11/17 06:16:29;;;;;;;2.40;2.30;;;4.80;76.50;;;;;;5045937;28;20594;-54
2023/11/17 06:18:56;;;;;;;3.23;2.97;;;4.80;76.80;;;;;;5040262;28;20202;-51
2023/11/17 06:21:23;;;;;;;3.10;2.90;;;4.90;77.00;;;;;;5046357;28;20668;-54
2023/11/17 06:23:48;;;;;;;2.73;2.53;;;4.90;76.90;;;;;;5049374;28;20304;-54
2023/11/17 06:26:15;;;;;;;2.50;2.40;;;4.90;76.80;;;;;;5048231;28;20270;-57
2023/11/17 06:28:41;;;;;;;2.80;2.60;;;4.90;76.70;;;;;;5044846;28;20202;-53
2023/11/17 06:31:08;;;;;;;2.63;2.43;;;4.90;77.40;;;;;;5049341;28;20209;-55
2023/11/17 06:33:34;;;;;;;3.10;2.90;;;4.90;77.00;;;;;;5047072;28;20868;-54
2023/11/17 06:36:03;;;;;;;3.67;2.60;;;4.90;76.50;;;;;;5049990;28;20249;-52
2023/11/17 06:38:31;;;;;;;2.10;2.00;;;5.00;77.00;;;;;;5051326;28;20231;-52
2023/11/17 06:40:59;;;;;;;2.33;2.23;;;4.90;76.50;;;;;;5050299;28;20255;-55
2023/11/17 06:43:25;;;;;;;2.70;2.50;;;4.90;76.50;;;;;;5045158;28;20214;-54
2023/11/17 06:45:52;;;;;;;2.77;2.67;;;4.90;77.00;;;;;;5034343;28;20250;-56
2023/11/17 06:48:20;;;;;;;2.40;2.30;;;4.90;76.90;;;;;;5040966;28;20666;-54
2023/11/17 06:50:48;;;;;;;3.43;2.70;;;4.80;75.80;;;;;;5042423;28;20620;-55
2023/11/17 06:53:14;;;;;;;3.20;2.70;;;4.90;77.00;;;;;;5048527;28;20210;-53
2023/11/17 06:55:41;;;;;;;2.37;2.10;;;5.00;76.40;;;;;;5048346;28;20250;-52
2023/11/17 06:58:07;;;;;;;3.00;2.60;;;5.00;77.00;;;;;;5042213;28;20199;-51
2023/11/17 07:00:34;;;;;;;2.97;2.77;;;5.00;77.10;;;;;;5044993;28;20297;-53
2023/11/17 07:03:00;;;;;;;2.60;2.40;;;5.00;77.00;;;;;;5040646;28;20638;-51
2023/11/17 07:05:27;;;;;;;3.30;2.57;;;5.00;77.00;;;;;;5044658;28;20597;-54
2023/11/17 07:07:53;;;;;;;2.63;2.53;;;5.10;75.80;;;;;;5046881;28;20285;-52
2023/11/17 07:10:20;;;;;;;2.80;2.60;;;5.10;76.10;;;;;;5045494;28;20293;-52
2023/11/17 07:12:49;;;;;;;2.50;2.30;;;5.20;77.20;;;;;;5041880;28;20224;-52
2023/11/17 07:15:17;;;;;;;2.83;2.60;;;5.10;76.20;;;;;;5041152;28;21592;-54
2023/11/17 07:17:43;;;;;;;3.20;2.70;;;5.10;76.10;;;;;;5038524;28;20292;-53
2023/11/17 07:20:11;;;;;;;2.53;2.43;;;5.10;76.40;;;;;;5037466;28;20202;-52
2023/11/17 07:22:38;;;;;;;2.77;2.57;;;5.10;77.40;;;;;;5042833;28;20256;-54
2023/11/17 07:25:04;;;;;;;2.73;2.50;;;5.20;76.60;;;;;;5043490;28;20233;-53
2023/11/17 07:27:31;;;;;;;2.60;2.40;;;5.10;76.60;;;;;;5049823;28;20660;-53
2023/11/17 07:29:58;;;;;;;2.70;2.50;;;5.20;75.90;;;;;;5045671;28;20685;-53
2023/11/17 07:32:24;;;;;;;2.47;2.37;;;5.10;76.10;;;;;;5046887;28;20233;-51
2023/11/17 07:34:51;;;;;;;2.40;2.30;;;5.10;76.70;;;;;;5045448;28;20309;-54
2023/11/17 07:37:18;;;;;;;2.13;2.03;;;5.20;75.80;;;;;;5044784;28;20197;-52
2023/11/17 07:39:44;;;;;;;2.77;2.50;;;5.10;76.60;;;;;;5046053;28;20206;-56
2023/11/17 07:42:11;;;;;;;2.50;2.40;;;5.20;76.70;;;;;;5041444;28;20309;-55
2023/11/17 07:44:38;;;;;;;2.40;2.20;;;5.30;76.40;;;;;;5042732;28;20287;-57
2023/11/17 07:47:04;;;;;;;2.47;2.30;;;5.30;76.20;;;;;;5034376;28;20706;-57
2023/11/17 07:49:31;;;;;;;2.93;2.73;;;5.30;76.10;;;;;;5042593;28;20233;-56
2023/11/17 07:51:57;;;;;;;2.60;2.50;;;5.30;75.80;;;;;;5044178;28;20239;-55
2023/11/17 07:54:24;;;;;;;2.10;2.00;;;5.30;75.90;;;;;;5050281;28;20201;-54
2023/11/17 07:56:51;;;;;;;2.40;2.20;;;5.30;76.10;;;;;;5050807;28;20651;-53
2023/11/17 07:59:19;;;;;;;3.17;2.70;;;5.30;75.80;;;;;;5053359;28;20244;-53
2023/11/17 08:01:45;;;;;;;2.60;2.40;;;5.30;76.30;;;;;;5053095;28;20194;-56
2023/11/17 08:04:12;;;;;;;2.17;2.07;;;5.30;76.50;;;;;;5055295;28;20612;-56
2023/11/17 08:06:39;;;;;;;2.93;2.73;;;5.30;76.50;;;;;;5041686;28;20280;-52
2023/11/17 08:09:09;;;;;;;2.60;2.40;;;5.30;76.40;;;;;;5050061;28;20209;-53
2023/11/17 08:11:35;;;;;;;2.33;2.23;;;5.40;76.70;;;;;;5046757;28;20198;-52
2023/11/17 08:14:05;;;;;;;2.90;2.70;;;5.40;77.10;;;;;;5050284;28;20213;-52
2023/11/17 08:16:31;;;;;;;2.57;2.37;;;5.30;76.20;;;;;;5050446;28;20627;-52
2023/11/17 08:18:58;;;;;;;2.87;2.63;;;5.30;76.90;;;;;;5050163;28;20673;-52
2023/11/17 08:21:25;;;;;;;2.20;2.10;;;5.30;77.30;;;;;;5047407;28;20198;-54
2023/11/17 08:23:51;;;;;;;2.67;2.47;;;5.30;77.30;;;;;;5044064;28;20211;-53
2023/11/17 08:26:19;;;;;;;2.80;2.60;;;5.30;77.30;;;;;;5047289;28;20229;-51
2023/11/17 08:28:45;;;;;;;2.60;2.50;;;5.40;77.50;;;;;;5051286;28;20749;-55
2023/11/17 08:31:14;;;;;;;3.27;2.97;;;5.30;76.90;;;;;;5048877;28;20217;-52
2023/11/17 08:33:42;;;;;;;3.10;2.90;;;5.30;77.50;;;;;;5049003;28;20203;-54
2023/11/17 08:36:09;;;;;;;2.77;2.57;;;5.40;77.40;;;;;;5042235;28;20340;-54
2023/11/17 08:38:36;;;;;;;2.63;2.43;;;5.40;78.00;;;;;;5021917;28;20242;-53
2023/11/17 08:41:02;;;;;;;3.37;3.07;;;5.40;76.80;;;;;;5034330;28;20530;-54
2023/11/17 08:43:29;;;;;;;3.33;3.03;;;5.40;76.40;;;;;;5042735;28;20244;-55
2023/11/17 08:45:56;;;;;;;2.93;2.67;;;5.40;76.60;;;;;;5045250;28;20308;-56
2023/11/17 08:48:23;;;;;;;3.07;2.83;;;5.40;76.10;;;;;;5048982;28;20229;-56
2023/11/17 08:50:49;;;;;;;3.10;2.90;;;5.50;77.20;;;;;;5046400;28;20556;-55
2023/11/17 08:53:17;;;;;;;3.10;2.90;;;5.40;76.40;;;;;;5044457;28;20230;-55
2023/11/17 08:55:44;;;;;;;3.03;2.83;;;5.50;76.80;;;;;;5040637;28;20845;-53
2023/11/17 08:58:10;;;;;;;3.07;2.90;;;5.50;76.40;;;;;;5041777;28;20197;-57
2023/11/17 09:00:37;;;;;;;3.10;2.90;;;5.40;76.80;;;;;;5047036;28;20259;-56
2023/11/17 09:03:04;;;;;;;3.00;2.80;;;5.30;76.60;;;;;;5048909;28;20212;-53
2023/11/17 09:05:31;;;;;;;2.93;2.80;;;5.30;76.50;;;;;;5047918;28;20231;-53
2023/11/17 09:07:57;;;;;;;3.70;3.40;;;5.40;77.50;;;;;;5044242;28;20242;-51
2023/11/17 09:10:26;;;;;;;3.27;2.93;;;5.40;78.30;;;;;;5048369;28;20683;-53
2023/11/17 09:12:53;;;;;;;3.53;3.23;;;5.40;77.40;;;;;;5046198;28;20222;-53
2023/11/17 09:15:19;;;;;;;3.50;3.20;;;5.40;77.20;;;;;;5047947;28;20264;-52
2023/11/17 09:17:50;;;;;;;3.30;3.10;;;5.50;77.90;;;;;;5042680;28;20202;-52
2023/11/17 09:20:17;;;;;;;3.37;3.17;;;5.50;78.10;;;;;;5048100;28;20208;-55
2023/11/17 09:22:44;;;;;;;3.50;3.20;;;5.50;78.10;;;;;;5050473;28;20288;-51
2023/11/17 09:25:14;;;;;;;3.63;3.23;;;5.50;78.40;;;;;;5043806;28;20256;-55
2023/11/17 09:27:40;;;;;;;4.17;3.80;;;5.50;78.90;;;;;;5040850;28;20198;-54
2023/11/17 09:30:08;;;;;;;3.27;3.07;;;5.60;77.90;;;;;;5044052;28;20600;-52
2023/11/17 09:32:34;;;;;;;3.27;3.07;;;5.60;78.20;;;;;;5044674;28;20240;-57
2023/11/17 09:35:01;;;;;;;3.87;3.57;;;5.50;78.60;;;;;;5050565;28;20226;-55
2023/11/17 09:37:28;;;;;;;3.57;3.30;;;5.50;78.20;;;;;;5041962;28;20206;-54
2023/11/17 09:39:56;;;;;;;7.70;4.30;;;5.50;77.50;;;;;;5044222;28;20213;-52
2023/11/17 09:42:25;;;;;;;3.10;2.90;;;5.50;77.10;;;;;;5042909;28;20211;-54
2023/11/17 09:44:52;;;;;;;3.30;3.10;;;5.40;75.80;;;;;;5040820;28;20231;-55
2023/11/17 09:47:21;;;;;;;2.80;2.60;;;5.40;77.40;;;;;;5043946;28;20273;-52
2023/11/17 09:49:48;;;;;;;3.13;2.93;;;5.50;77.10;;;;;;5048334;28;20233;-54
2023/11/17 09:52:14;;;;;;;3.30;3.10;;;5.60;77.20;;;;;;5038293;28;20550;-51
2023/11/17 09:54:41;;;;;;;3.00;2.80;;;5.70;77.00;;;;;;5045671;28;20606;-56
2023/11/17 09:57:08;;;;;;;2.73;2.50;;;5.70;76.30;;;;;;5048525;28;20263;-53
2023/11/17 09:59:36;;;;;;;3.17;2.60;;;5.60;75.90;;;;;;5017186;28;20299;-51
2023/11/17 10:02:03;;;;;;;2.43;2.33;;;5.60;75.60;;;;;;5040159;28;20205;-52
2023/11/17 10:04:32;;;;;;;3.00;2.80;;;5.60;75.90;;;;;;5038275;28;20313;-56
2023/11/17 10:06:58;;;;;;;3.87;3.57;;;5.50;76.30;;;;;;5044213;28;20618;-52
2023/11/17 10:09:25;;;;;;;3.00;2.80;;;5.50;77.10;;;;;;5049039;28;20729;-56
2023/11/17 10:11:53;;;;;;;3.20;2.77;;;5.60;77.60;;;;;;5045331;28;20323;-53
2023/11/17 10:14:20;;;;;;;2.80;2.70;;;5.60;76.70;;;;;;5039412;28;20210;-53
2023/11/17 10:16:50;;;;;;;2.47;2.33;;;5.70;76.80;;;;;;5050093;28;20206;-51
2023/11/17 10:19:16;;;;;;;2.97;2.77;;;5.70;76.30;;;;;;5033606;28;20206;-54
2023/11/17 10:21:46;;;;;;;2.50;2.40;;;5.70;75.80;;;;;;5038360;28;20638;-53
2023/11/17 10:24:12;;;;;;;2.67;2.57;;;5.70;76.10;;;;;;5049222;28;20264;-54
2023/11/17 10:26:39;;;;;;;2.80;2.60;;;5.70;75.70;;;;;;5042039;28;20316;-51
2023/11/17 10:29:06;;;;;;;2.57;2.47;;;5.70;75.40;;;;;;5050549;28;20594;-53
2023/11/17 10:31:32;;;;;;;2.60;2.40;;;5.80;75.70;;;;;;5050196;28;20288;-53
2023/11/17 10:34:00;;;;;;;2.70;2.50;;;5.80;74.70;;;;;;5050643;28;20224;-51
2023/11/17 10:36:26;;;;;;;2.37;2.20;;;5.80;74.80;;;;;;5041999;28;20230;-52
2023/11/17 10:38:53;;;;;;;2.87;2.67;;;5.80;74.90;;;;;;5036505;28;20300;-53
2023/11/17 10:41:20;;;;;;;2.90;2.70;;;5.70;75.40;;;;;;5039808;28;20203;-55
2023/11/17 10:43:47;;;;;;;2.33;2.23;;;5.80;74.80;;;;;;5038280;28;20225;-50
2023/11/17 10:46:13;;;;;;;2.80;2.60;;;5.80;75.00;;;;;;5034961;28;20247;-51
2023/11/17 10:48:42;;;;;;;2.43;2.33;;;5.90;75.60;;;;;;5032843;28;20271;-51
2023/11/17 10:51:09;;;;;;;2.93;2.50;;;5.90;74.80;;;;;;5044078;28;20241;-54
2023/11/17 10:53:35;;;;;;;2.40;2.20;;;5.80;74.30;;;;;;5043028;28;20215;-52
2023/11/17 10:56:04;;;;;;;2.50;2.40;;;5.90;75.10;;;;;;5029658;28;20219;-54
2023/11/17 10:58:30;;;;;;;2.40;2.30;;;6.00;75.70;;;;;;4999402;28;20210;-53
2023/11/17 11:00:56;;;;;;;2.80;2.60;;;6.10;75.20;;;;;;5033073;28;24375;-55
2023/11/17 11:03:23;;;;;;;2.30;2.20;;;6.10;74.50;;;;;;5042085;28;20204;-56
2023/11/17 11:05:51;;;;;;;3.00;2.80;;;5.90;73.90;;;;;;5042784;28;20273;-56
2023/11/17 11:08:18;;;;;;;3.00;2.80;;;6.10;75.00;;;;;;5044040;28;20204;-53
2023/11/17 11:10:45;;;;;;;2.47;2.37;;;6.10;73.60;;;;;;5048509;28;20211;-56
2023/11/17 11:13:11;;;;;;;3.10;2.80;;;6.10;73.60;;;;;;5026234;28;20415;-55
2023/11/17 11:15:38;;;;;;;3.00;2.80;;;6.10;73.60;;;;;;5046309;28;20245;-53
2023/11/17 11:18:06;;;;;;;3.37;2.83;;;6.10;73.20;;;;;;5021928;28;20683;-51
2023/11/17 11:20:33;;;;;;;2.90;2.73;;;6.20;73.10;;;;;;5028456;28;20592;-55
2023/11/17 11:22:59;;;;;;;2.77;2.67;;;6.20;72.80;;;;;;5028800;28;20340;-53
2023/11/17 11:25:27;;;;;;;3.43;3.20;;;6.40;72.50;;;;;;5030503;28;20619;-53
2023/11/17 11:27:53;;;;;;;3.17;2.97;;;6.60;70.80;;;;;;5033438;28;20243;-53
2023/11/17 11:30:20;;;;;;;2.73;2.63;;;6.40;70.50;;;;;;5018302;28;20678;-52
2023/11/17 11:32:46;;;;;;;3.33;3.00;;;6.40;71.00;;;;;;5029089;28;20285;-55
2023/11/17 11:35:14;;;;;;;3.30;3.10;;;6.60;71.10;;;;;;5023993;28;20227;-52
2023/11/17 11:37:41;;;;;;;3.20;3.00;;;6.60;70.60;;;;;;5023298;28;20239;-52
2023/11/17 11:40:11;;;;;;;3.50;3.20;;;6.40;71.30;;;;;;5036271;28;20212;-52
2023/11/17 11:42:41;;;;;;;3.30;3.10;;;6.60;71.20;;;;;;5026347;28;20206;-52
2023/11/17 11:45:07;;;;;;;2.87;2.70;;;6.40;69.40;;;;;;5031386;28;20231;-52
2023/11/17 11:47:34;;;;;;;3.47;2.83;;;6.40;69.50;;;;;;5046374;28;20214;-53
2023/11/17 11:50:00;;;;;;;2.90;2.70;;;6.40;69.70;;;;;;5053019;28;20222;-52
2023/11/17 11:52:27;;;;;;;3.07;2.60;;;6.40;68.70;;;;;;5051740;28;20577;-51
2023/11/17 11:54:55;;;;;;;2.30;2.20;;;7.00;68.00;;;;;;5051909;28;20323;-55
2023/11/17 11:57:22;;;;;;;3.20;3.00;;;7.00;67.50;;;;;;5050865;28;20667;-58
2023/11/17 11:59:48;;;;;;;2.50;2.30;;;6.90;68.30;;;;;;5047883;28;20262;-58
2023/11/17 12:02:15;;;;;;;2.60;2.40;;;6.70;68.40;;;;;;5042606;28;20212;-58
2023/11/17 12:04:41;;;;;;;2.50;2.30;;;6.60;69.30;;;;;;5045403;28;20228;-53
2023/11/17 12:07:07;;;;;;;3.07;2.80;;;6.50;68.50;;;;;;5049705;28;20228;-56
2023/11/17 12:09:37;;;;;;;2.33;2.23;;;6.50;69.80;;;;;;5051606;28;20364;-51
2023/11/17 12:12:04;;;;;;;4.00;2.67;;;6.60;69.60;;;;;;5045916;28;20240;-56
2023/11/17 12:14:31;;;;;;;2.80;2.60;;;6.60;69.10;;;;;;5046835;28;20204;-54
2023/11/17 12:16:58;;;;;;;2.90;2.70;;;6.50;68.00;;;;;;5047645;28;20211;-52
2023/11/17 12:19:24;;;;;;;3.30;3.00;;;6.60;68.70;;;;;;5041244;28;20513;-52
2023/11/17 12:21:50;;;;;;;3.03;2.83;;;6.80;67.50;;;;;;5050573;28;20239;-55
2023/11/17 12:24:22;;;;;;;3.10;2.80;;;6.70;68.00;;;;;;5050723;28;20259;-57
2023/11/17 12:26:48;;;;;;;3.07;2.80;;;6.80;69.30;;;;;;5049597;28;20605;-56
2023/11/17 12:29:15;;;;;;;3.40;3.20;;;6.80;69.20;;;;;;5050022;28;20200;-54
2023/11/17 12:31:43;;;;;;;2.90;2.70;;;6.70;68.80;;;;;;5051502;28;20215;-53
2023/11/17 12:34:11;;;;;;;3.60;3.30;;;6.70;68.90;;;;;;5047155;28;20217;-54
2023/11/17 12:36:37;;;;;;;3.47;3.17;;;6.70;68.30;;;;;;5047253;28;20310;-54
2023/11/17 12:39:06;;;;;;;3.63;3.40;;;6.70;68.40;;;;;;5044686;28;20745;-54
2023/11/17 12:41:33;;;;;;;3.47;3.17;;;6.80;67.20;;;;;;5043632;28;20200;-53
2023/11/17 12:43:59;;;;;;;3.90;3.50;;;7.40;65.20;;;;;;5045872;28;20206;-56
2023/11/17 12:46:26;;;;;;;3.53;3.23;;;7.40;64.80;;;;;;5046177;28;20226;-52
2023/11/17 12:48:53;;;;;;;3.40;3.10;;;7.30;65.50;;;;;;5041890;28;20216;-53
2023/11/17 12:51:19;;;;;;;3.80;3.50;;;7.20;65.70;;;;;;5041923;28;20220;-56
2023/11/17 12:53:46;;;;;;;3.87;3.47;;;7.20;65.00;;;;;;5050440;28;20213;-56
2023/11/17 12:56:12;;;;;;;3.80;3.50;;;7.10;65.50;;;;;;5040486;28;20244;-56